createdAt,value
2023-01-26T00:03:00.966Z,9.8
2023-01-26T00:10:33.280Z,9.8
2023-01-26T00:18:05.575Z,9.8
2023-01-26T00:25:37.876Z,9.8
2023-01-26T00:33:10.199Z,11.6
2023-01-26T00:40:42.526Z,11.6
2023-01-26T00:48:14.838Z,11.6
2023-01-26T00:55:47.170Z,11.6
2023-01-26T01:03:19.495Z,11.6
2023-01-26T01:10:51.823Z,11.6
2023-01-26T01:18:24.165Z,11.6
2023-01-26T01:25:56.504Z,11.6
2023-01-26T01:33:28.814Z,12.3
2023-01-26T01:41:01.136Z,12.3
2023-01-26T01:48:33.481Z,12.3
2023-01-26T01:56:05.802Z,12.3
2023-01-26T02:03:38.143Z,12.3
2023-01-26T02:11:10.458Z,12.3
2023-01-26T02:18:42.754Z,12.3
2023-01-26T02:26:15.063Z,12.3
2023-01-26T02:33:47.389Z,14.2
2023-01-26T02:41:19.702Z,14.2
2023-01-26T02:48:52.043Z,14.2
2023-01-26T02:56:24.364Z,14.2
2023-01-26T03:03:56.676Z,14.2
2023-01-26T03:11:29.005Z,14.2
2023-01-26T03:19:01.330Z,14.2
2023-01-26T03:26:33.643Z,14.2
2023-01-26T03:34:05.948Z,14.7
2023-01-26T03:41:38.253Z,14.7
2023-01-26T03:49:10.587Z,14.7
2023-01-26T03:56:42.904Z,14.7
2023-01-26T04:04:15.229Z,14.7
2023-01-26T04:11:47.543Z,14.7
2023-01-26T04:19:19.871Z,14.7
2023-01-26T04:26:52.208Z,14.7
2023-01-26T04:34:24.535Z,14.2
2023-01-26T04:41:56.847Z,14.2
2023-01-26T04:49:29.186Z,14.2
2023-01-26T04:57:01.549Z,14.2
2023-01-26T05:04:33.891Z,14.2
2023-01-26T05:12:06.303Z,14.2
2023-01-26T05:19:38.616Z,14.2
2023-01-26T05:23:48.431Z,14.2
2023-01-26T05:24:35.743Z,15.7
2023-01-26T05:25:23.055Z,15.7
2023-01-26T05:26:10.577Z,15.7
2023-01-26T05:26:57.888Z,15.7
2023-01-26T05:27:45.215Z,15.7
2023-01-26T05:28:32.507Z,15.7
2023-01-26T05:29:19.857Z,15.7
2023-01-26T05:30:07.160Z,15.7
2023-01-26T05:30:54.605Z,15.7
2023-01-26T05:31:41.971Z,15.7
2023-01-26T05:32:29.318Z,15.7
2023-01-26T05:33:16.620Z,15.7
2023-01-26T05:34:03.952Z,15.7
2023-01-26T05:34:51.270Z,15.7
2023-01-26T05:35:38.593Z,15.7
2023-01-26T05:36:25.915Z,15.7
2023-01-26T05:37:14.954Z,15.7
2023-01-26T05:38:02.731Z,15.7
2023-01-26T05:38:50.046Z,15.7
2023-01-26T05:39:37.370Z,15.7
2023-01-26T05:40:24.718Z,15.7
2023-01-26T05:41:12.064Z,15.7
2023-01-26T05:41:59.400Z,15.7
2023-01-26T05:42:46.708Z,15.7
2023-01-26T05:43:34.030Z,15.7
2023-01-26T05:44:21.341Z,15.7
2023-01-26T05:45:08.684Z,15.7
2023-01-26T05:45:56.069Z,15.7
2023-01-26T05:46:43.400Z,15.7
2023-01-26T05:47:30.733Z,15.7
2023-01-26T05:48:18.054Z,15.7
2023-01-26T05:49:05.365Z,15.7
2023-01-26T05:49:52.698Z,15.7
2023-01-26T05:50:40.013Z,15.7
2023-01-26T05:51:27.363Z,15.7
2023-01-26T05:52:14.672Z,15.7
2023-01-26T05:53:02.011Z,15.7
2023-01-26T05:53:49.321Z,15.7
2023-01-26T05:54:36.628Z,15.7
2023-01-26T05:55:23.959Z,15.7
2023-01-26T05:56:11.273Z,15.7
2023-01-26T05:56:58.551Z,15.7
2023-01-26T05:57:45.881Z,15.7
2023-01-26T05:58:33.194Z,15.7
2023-01-26T05:59:20.663Z,15.7
2023-01-26T06:00:07.964Z,15.7
2023-01-26T06:00:55.323Z,15.7
2023-01-26T06:01:42.638Z,15.7
2023-01-26T06:02:30.036Z,15.7
2023-01-26T06:03:17.396Z,15.7
2023-01-26T06:04:04.712Z,15.7
2023-01-26T06:04:52.053Z,15.7
2023-01-26T06:05:39.381Z,15.7
2023-01-26T06:06:26.699Z,15.7
2023-01-26T06:07:14.021Z,15.7
2023-01-26T06:08:01.340Z,15.7
2023-01-26T06:08:48.686Z,15.7
2023-01-26T06:09:36.014Z,15.7
2023-01-26T06:10:23.349Z,15.7
2023-01-26T06:11:10.654Z,15.7
2023-01-26T06:11:57.966Z,15.7
2023-01-26T06:12:45.269Z,15.7
2023-01-26T06:13:32.592Z,15.7
2023-01-26T06:14:19.920Z,15.7
2023-01-26T06:15:07.206Z,15.7
2023-01-26T06:15:54.505Z,15.7
2023-01-26T06:16:41.881Z,15.7
2023-01-26T06:17:29.207Z,15.7
2023-01-26T06:18:16.519Z,15.7
2023-01-26T06:19:03.825Z,15.7
2023-01-26T06:19:51.166Z,15.7
2023-01-26T06:20:38.501Z,15.7
2023-01-26T06:21:25.829Z,18.5
2023-01-26T06:22:13.171Z,18.5
2023-01-26T06:23:00.511Z,18.5
2023-01-26T06:23:47.884Z,18.5
2023-01-26T06:24:35.252Z,18.5
2023-01-26T06:25:22.574Z,18.5
2023-01-26T06:26:10.918Z,18.5
2023-01-26T06:26:58.335Z,18.5
2023-01-26T06:27:45.905Z,18.5
2023-01-26T06:28:33.222Z,18.5
2023-01-26T06:29:20.527Z,18.5
2023-01-26T06:30:08.069Z,18.5
2023-01-26T06:30:55.453Z,18.5
2023-01-26T06:31:42.974Z,18.5
2023-01-26T06:32:30.505Z,18.5
2023-01-26T06:33:17.824Z,18.5
2023-01-26T06:34:05.161Z,18.5
2023-01-26T06:34:52.566Z,18.5
2023-01-26T06:35:39.930Z,18.5
2023-01-26T06:36:27.237Z,18.5
2023-01-26T06:37:14.702Z,18.5
2023-01-26T06:38:02.034Z,18.5
2023-01-26T06:38:49.340Z,18.5
2023-01-26T06:39:36.777Z,18.5
2023-01-26T06:40:24.090Z,18.5
2023-01-26T07:43:17.746Z,24.4
2023-01-26T07:44:05.148Z,24.4
2023-01-26T07:44:52.987Z,24.4
2023-01-26T07:45:40.329Z,24.4
2023-01-26T07:46:27.749Z,24.4
2023-01-26T07:47:15.114Z,24.4
2023-01-26T07:48:02.456Z,24.4
2023-01-26T07:48:49.821Z,24.4
2023-01-26T07:49:37.146Z,24.4
2023-01-26T07:50:24.468Z,24.4
2023-01-26T07:51:11.895Z,24.4
2023-01-26T07:51:59.213Z,24.4
2023-01-26T07:52:46.559Z,24.4
2023-01-26T07:53:34.086Z,24.4
2023-01-26T07:54:21.518Z,24.4
2023-01-26T07:55:08.844Z,24.4
2023-01-26T07:55:56.260Z,24.4
2023-01-26T07:56:43.583Z,24.4
2023-01-26T07:57:31.127Z,24.4
2023-01-26T07:58:18.666Z,24.4
2023-01-26T07:59:06.038Z,24.4
2023-01-26T07:59:53.342Z,24.4
2023-01-26T08:00:40.769Z,24.4
2023-01-26T08:01:28.127Z,24.4
2023-01-26T08:02:15.475Z,24.4
2023-01-26T08:03:02.981Z,24.4
2023-01-26T08:03:50.319Z,24.4
2023-01-26T08:04:37.740Z,24.4
2023-01-26T08:05:25.036Z,24.4
2023-01-26T08:06:13.936Z,24.4
2023-01-26T08:07:02.497Z,24.4
2023-01-26T08:07:50.849Z,24.4
2023-01-26T08:08:38.228Z,24.4
2023-01-26T08:09:25.738Z,24.4
2023-01-26T08:10:13.273Z,24.4
2023-01-26T08:11:00.827Z,24.4
2023-01-26T08:11:48.304Z,24.4
2023-01-26T08:12:38.581Z,24.4
2023-01-26T08:13:35.347Z,24.4
2023-01-26T08:14:23.315Z,24.4
2023-01-26T08:15:10.760Z,24.4
2023-01-26T08:15:58.111Z,24.4
2023-01-26T08:16:45.574Z,24.4
2023-01-26T08:17:32.971Z,24.4
2023-01-26T08:18:20.446Z,24.4
2023-01-26T08:19:07.796Z,24.4
2023-01-26T08:19:55.185Z,24.4
2023-01-26T08:20:42.482Z,24.4
2023-01-26T08:21:29.814Z,24.4
2023-01-26T08:22:17.234Z,24.4
2023-01-26T08:23:04.629Z,24.4
2023-01-26T08:23:52.082Z,24.4
2023-01-26T08:24:39.495Z,24.4
2023-01-26T08:25:26.836Z,24.4
2023-01-26T08:26:14.275Z,24.4
2023-01-26T08:27:01.631Z,24.4
2023-01-26T08:27:48.936Z,24.4
2023-01-26T08:28:36.271Z,24.4
2023-01-26T08:29:23.687Z,24.4
2023-01-26T08:30:11.345Z,24.4
2023-01-26T08:30:58.932Z,24.4
2023-01-26T08:31:46.333Z,24.4
2023-01-26T08:32:33.691Z,24.4
2023-01-26T08:33:21.007Z,24.4
2023-01-26T08:34:08.419Z,24.4
2023-01-26T08:34:55.728Z,24.4
2023-01-26T08:35:43.026Z,24.4
2023-01-26T08:36:30.443Z,24.4
2023-01-26T08:37:17.772Z,24.4
2023-01-26T08:38:05.115Z,24.4
2023-01-26T08:38:52.489Z,24.4
2023-01-26T08:39:39.859Z,24.4
2023-01-26T08:40:27.209Z,24.4
2023-01-26T08:41:14.566Z,24.4
2023-01-26T08:42:01.882Z,24.4
2023-01-26T08:42:49.195Z,26.3
2023-01-26T08:43:36.620Z,26.3
2023-01-26T08:44:23.921Z,26.3
2023-01-26T08:45:11.224Z,26.3
2023-01-26T08:45:59.176Z,26.3
2023-01-26T08:46:47.027Z,26.3
2023-01-26T08:47:34.420Z,26.3
2023-01-26T08:48:21.974Z,26.3
2023-01-26T08:49:09.437Z,26.3
2023-01-26T08:49:56.783Z,26.3
2023-01-26T08:50:44.103Z,26.3
2023-01-26T08:51:31.708Z,26.3
2023-01-26T08:52:19.020Z,26.3
2023-01-26T08:53:06.341Z,26.3
2023-01-26T08:53:53.741Z,26.3
2023-01-26T08:54:41.070Z,26.3
2023-01-26T08:55:28.388Z,26.3
2023-01-26T08:56:15.807Z,26.3
2023-01-26T08:57:03.140Z,26.3
2023-01-26T08:57:50.522Z,26.3
2023-01-26T08:58:37.999Z,26.3
2023-01-26T08:59:25.296Z,26.3
2023-01-26T09:00:12.984Z,26.3
2023-01-26T09:01:00.893Z,26.3
2023-01-26T09:01:50.211Z,26.3
2023-01-26T09:02:39.133Z,26.3
2023-01-26T09:04:22.542Z,26.3
2023-01-26T09:05:11.891Z,26.3
2023-01-26T09:05:59.630Z,26.3
2023-01-26T09:06:50.945Z,26.3
2023-01-26T09:07:38.585Z,26.3
2023-01-26T09:08:26.044Z,26.3
2023-01-26T09:09:13.746Z,26.3
2023-01-26T09:10:06.075Z,26.3
2023-01-26T09:10:53.395Z,26.3
2023-01-26T09:11:40.790Z,26.3
2023-01-26T09:12:28.104Z,26.3
2023-01-26T09:13:15.404Z,26.3
2023-01-26T09:14:02.850Z,26.3
2023-01-26T09:14:50.153Z,26.3
2023-01-26T09:15:37.458Z,26.3
2023-01-26T09:16:24.938Z,26.3
2023-01-26T09:17:12.307Z,26.3
2023-01-26T09:18:01.052Z,26.3
2023-01-26T09:18:48.547Z,26.3
2023-01-26T09:19:35.863Z,26.3
2023-01-26T09:20:23.328Z,26.3
2023-01-26T09:21:10.702Z,26.3
2023-01-26T09:21:58.159Z,26.3
2023-01-26T09:22:45.492Z,26.3
2023-01-26T09:23:32.801Z,26.3
2023-01-26T09:24:20.282Z,26.3
2023-01-26T09:25:07.601Z,26.3
2023-01-26T09:25:54.922Z,26.3
2023-01-26T09:26:42.349Z,26.3
2023-01-26T09:27:29.694Z,26.3
2023-01-26T09:28:17.017Z,26.3
2023-01-26T09:29:04.461Z,26.3
2023-01-26T09:29:51.800Z,26.3
2023-01-26T09:30:39.203Z,26.3
2023-01-26T09:31:26.740Z,26.3
2023-01-26T09:32:14.346Z,26.3
2023-01-26T09:33:01.677Z,26.3
2023-01-26T09:33:49.085Z,26.3
2023-01-26T09:34:36.402Z,26.3
2023-01-26T09:35:23.722Z,26.3
2023-01-26T09:36:11.114Z,26.3
2023-01-26T09:36:58.435Z,26.3
2023-01-26T09:37:45.825Z,26.3
2023-01-26T09:38:33.162Z,26.3
2023-01-26T09:39:20.461Z,26.3
2023-01-26T09:40:07.785Z,26.3
2023-01-26T09:40:55.184Z,26.3
2023-01-26T09:41:42.510Z,26.3
2023-01-26T09:42:29.821Z,26.3
2023-01-26T09:43:17.238Z,22.9
2023-01-26T09:44:04.562Z,22.9
2023-01-26T09:44:51.899Z,22.9
2023-01-26T09:45:39.278Z,22.9
2023-01-26T09:46:26.648Z,22.9
2023-01-26T09:47:13.994Z,22.9
2023-01-26T09:48:01.422Z,22.9
2023-01-26T09:48:48.754Z,22.9
2023-01-26T09:49:36.078Z,22.9
2023-01-26T09:50:23.488Z,22.9
2023-01-26T09:51:10.952Z,22.9
2023-01-26T09:52:00.438Z,22.9
2023-01-26T09:52:48.150Z,22.9
2023-01-26T09:53:35.468Z,22.9
2023-01-26T09:54:23.075Z,22.9
2023-01-26T09:55:10.728Z,22.9
2023-01-26T09:55:58.255Z,22.9
2023-01-26T09:56:46.062Z,22.9
2023-01-26T09:57:33.399Z,22.9
2023-01-26T09:58:20.712Z,22.9
2023-01-26T09:59:08.150Z,22.9
2023-01-26T09:59:55.483Z,22.9
2023-01-26T10:00:42.794Z,22.9
2023-01-26T10:01:30.286Z,22.9
2023-01-26T10:02:17.701Z,22.9
2023-01-26T10:03:05.054Z,22.9
2023-01-26T10:03:52.475Z,22.9
2023-01-26T10:04:39.886Z,22.9
2023-01-26T10:05:27.192Z,22.9
2023-01-26T10:06:14.644Z,22.9
2023-01-26T10:07:01.973Z,22.9
2023-01-26T10:07:49.452Z,22.9
2023-01-26T10:08:36.760Z,22.9
2023-01-26T10:09:24.087Z,22.9
2023-01-26T10:10:11.407Z,22.9
2023-01-26T10:10:58.820Z,22.9
2023-01-26T10:11:46.135Z,22.9
2023-01-26T10:12:33.640Z,22.9
2023-01-26T10:13:20.968Z,22.9
2023-01-26T10:14:08.322Z,22.9
2023-01-26T10:14:57.498Z,22.9
2023-01-26T10:16:32.289Z,22.9
2023-01-26T10:17:19.745Z,22.9
2023-01-26T10:18:07.071Z,22.9
2023-01-26T10:18:54.498Z,22.9
2023-01-26T10:19:41.811Z,22.9
2023-01-26T10:20:29.152Z,22.9
2023-01-26T10:21:16.571Z,22.9
2023-01-26T10:22:03.900Z,22.9
2023-01-26T10:22:51.219Z,22.9
2023-01-26T10:23:38.628Z,22.9
2023-01-26T10:24:25.963Z,22.9
2023-01-26T10:25:13.434Z,22.9
2023-01-26T10:26:00.825Z,22.9
2023-01-26T10:26:48.150Z,22.9
2023-01-26T10:27:35.467Z,22.9
2023-01-26T10:28:22.880Z,22.9
2023-01-26T10:29:10.216Z,22.9
2023-01-26T10:29:57.523Z,22.9
2023-01-26T10:30:45.119Z,22.9
2023-01-26T10:31:32.761Z,22.9
2023-01-26T10:32:20.404Z,22.9
2023-01-26T10:33:07.805Z,22.9
2023-01-26T10:33:55.327Z,22.9
2023-01-26T10:34:42.740Z,22.9
2023-01-26T10:35:30.071Z,22.9
2023-01-26T10:36:17.393Z,22.9
2023-01-26T10:37:04.756Z,22.9
2023-01-26T10:37:52.105Z,22.9
2023-01-26T10:38:39.464Z,22.9
2023-01-26T10:39:26.810Z,22.9
2023-01-26T10:40:14.139Z,22.9
2023-01-26T10:41:01.475Z,22.9
2023-01-26T10:41:48.793Z,22.9
2023-01-26T10:42:36.161Z,22.9
2023-01-26T10:43:23.468Z,20.0
2023-01-26T10:44:10.777Z,20.0
2023-01-26T10:45:00.123Z,20.0
2023-01-26T10:45:47.637Z,20.0
2023-01-26T10:46:35.005Z,20.0
2023-01-26T10:47:22.387Z,20.0
2023-01-26T10:48:09.705Z,20.0
2023-01-26T10:48:57.101Z,20.0
2023-01-26T10:49:44.401Z,20.0
2023-01-26T10:50:31.743Z,20.0
2023-01-26T10:51:19.141Z,20.0
2023-01-26T10:52:06.491Z,20.0
2023-01-26T10:52:53.809Z,20.0
2023-01-26T10:53:41.261Z,20.0
2023-01-26T10:54:28.584Z,20.0
2023-01-26T10:55:15.902Z,20.0
2023-01-26T10:56:03.353Z,20.0
2023-01-26T10:56:50.705Z,20.0
2023-01-26T10:57:38.035Z,20.0
2023-01-26T10:58:25.442Z,20.0
2023-01-26T10:59:12.806Z,20.0
2023-01-26T11:00:00.129Z,20.0
2023-01-26T11:00:47.544Z,20.0
2023-01-26T11:01:34.919Z,20.0
2023-01-26T11:02:22.264Z,20.0
2023-01-26T11:03:09.712Z,20.0
2023-01-26T11:03:57.027Z,20.0
2023-01-26T11:04:44.328Z,20.0
2023-01-26T11:05:31.739Z,20.0
2023-01-26T11:06:19.064Z,20.0
2023-01-26T11:07:06.415Z,20.0
2023-01-26T11:07:53.779Z,20.0
2023-01-26T11:08:41.114Z,20.0
2023-01-26T11:09:28.495Z,20.0
2023-01-26T11:10:15.842Z,20.0
2023-01-26T11:11:03.238Z,20.0
2023-01-26T11:11:50.571Z,20.0
2023-01-26T11:12:38.020Z,20.0
2023-01-26T11:13:25.312Z,20.0
2023-01-26T11:14:12.641Z,20.0
2023-01-26T11:15:00.035Z,20.0
2023-01-26T11:15:47.352Z,20.0
2023-01-26T11:16:34.738Z,20.0
2023-01-26T11:17:22.093Z,20.0
2023-01-26T11:18:09.415Z,20.0
2023-01-26T11:18:56.718Z,20.0
2023-01-26T11:19:44.203Z,20.0
2023-01-26T11:20:31.514Z,20.0
2023-01-26T11:21:18.898Z,20.0
2023-01-26T11:22:06.295Z,20.0
2023-01-26T11:22:53.642Z,20.0
2023-01-26T11:23:40.962Z,20.0
2023-01-26T11:24:28.417Z,20.0
2023-01-26T11:25:15.786Z,20.0
2023-01-26T11:26:03.117Z,20.0
2023-01-26T11:26:50.559Z,20.0
2023-01-26T11:27:37.895Z,20.0
2023-01-26T11:28:25.233Z,20.0
2023-01-26T11:29:12.684Z,20.0
2023-01-26T11:30:00.444Z,20.0
2023-01-26T11:30:47.784Z,20.0
2023-01-26T11:31:35.260Z,20.0
2023-01-26T11:32:22.604Z,20.0
2023-01-26T11:33:09.908Z,20.0
2023-01-26T11:33:58.420Z,20.0
2023-01-26T11:34:45.795Z,20.0
2023-01-26T11:35:33.678Z,20.0
2023-01-26T11:36:21.015Z,20.0
2023-01-26T11:37:08.353Z,20.0
2023-01-26T11:37:55.675Z,20.0
2023-01-26T11:38:43.079Z,20.0
2023-01-26T11:39:30.432Z,20.0
2023-01-26T11:40:17.787Z,20.0
2023-01-26T11:41:05.140Z,20.0
2023-01-26T11:41:52.477Z,20.0
2023-01-26T11:42:39.859Z,18.4
2023-01-26T11:43:27.192Z,18.4
2023-01-26T11:44:14.539Z,18.4
2023-01-26T11:45:01.921Z,18.4
2023-01-26T11:45:49.246Z,18.4
2023-01-26T11:46:36.675Z,18.4
2023-01-26T11:47:24.325Z,18.4
2023-01-26T11:48:11.672Z,18.4
2023-01-26T11:48:58.996Z,18.4
2023-01-26T11:49:46.354Z,18.4
2023-01-26T11:50:34.076Z,18.4
2023-01-26T11:51:21.440Z,18.4
2023-01-26T11:52:09.010Z,18.4
2023-01-26T11:52:56.362Z,18.4
2023-01-26T11:53:43.715Z,18.4
2023-01-26T11:54:31.030Z,18.4
2023-01-26T11:55:18.397Z,18.4
2023-01-26T11:56:05.719Z,18.4
2023-01-26T11:56:53.130Z,18.4
2023-01-26T11:57:40.478Z,18.4
2023-01-26T11:58:27.850Z,18.4
2023-01-26T11:59:15.219Z,18.4
2023-01-26T12:00:02.563Z,18.4
2023-01-26T12:00:49.886Z,18.4
2023-01-26T12:01:37.313Z,18.4
2023-01-26T12:02:27.520Z,18.4
2023-01-26T12:03:15.161Z,18.4
2023-01-26T12:04:02.594Z,18.4
2023-01-26T12:04:49.928Z,18.4
2023-01-26T12:05:37.260Z,18.4
2023-01-26T12:06:24.717Z,18.4
2023-01-26T12:07:18.253Z,18.4
2023-01-26T12:08:16.141Z,18.4
2023-01-26T12:09:03.958Z,18.4
2023-01-26T12:09:51.366Z,18.4
2023-01-26T12:10:38.668Z,18.4
2023-01-26T12:11:25.981Z,18.4
2023-01-26T12:12:13.398Z,18.4
2023-01-26T12:13:00.711Z,18.4
2023-01-26T12:13:49.589Z,18.4
2023-01-26T12:14:36.973Z,18.4
2023-01-26T12:15:24.287Z,18.4
2023-01-26T12:16:11.628Z,18.4
2023-01-26T12:17:15.697Z,18.4
2023-01-26T12:17:56.228Z,18.4
2023-01-26T12:18:55.682Z,18.4
2023-01-26T12:19:41.037Z,18.4
2023-01-26T12:20:28.412Z,18.4
2023-01-26T12:21:15.787Z,18.4
2023-01-26T12:22:03.280Z,18.4
2023-01-26T12:22:50.618Z,18.4
2023-01-26T12:23:37.933Z,18.4
2023-01-26T12:25:00.976Z,18.4
2023-01-26T12:25:22.611Z,18.4
2023-01-26T12:26:09.985Z,18.4
2023-01-26T12:26:57.296Z,18.4
2023-01-26T12:27:44.615Z,18.4
2023-01-26T12:28:32.015Z,18.4
2023-01-26T12:29:19.364Z,18.4
2023-01-26T12:30:06.729Z,18.4
2023-01-26T12:30:54.257Z,18.4
2023-01-26T12:31:41.697Z,18.4
2023-01-26T12:32:29.045Z,18.4
2023-01-26T12:33:16.464Z,18.4
2023-01-26T12:34:03.806Z,18.4
2023-01-26T12:34:51.152Z,18.4
2023-01-26T12:35:38.590Z,18.4
2023-01-26T12:36:25.951Z,18.4
2023-01-26T12:37:13.302Z,18.4
2023-01-26T12:38:16.682Z,18.4
2023-01-26T12:38:57.988Z,18.4
2023-01-26T12:39:45.399Z,18.4
2023-01-26T12:40:32.737Z,18.4
2023-01-26T12:41:20.083Z,18.4
2023-01-26T12:42:07.460Z,18.4
2023-01-26T12:42:54.813Z,28.8
2023-01-26T12:43:42.167Z,28.8
2023-01-26T12:44:29.836Z,28.8
2023-01-26T12:45:18.535Z,28.8
2023-01-26T12:46:06.052Z,28.8
2023-01-26T12:46:53.381Z,28.8
2023-01-26T12:47:40.728Z,28.8
2023-01-26T12:48:28.273Z,28.8
2023-01-26T12:49:15.639Z,28.8
2023-01-26T12:50:02.993Z,28.8
2023-01-26T12:50:50.365Z,28.8
2023-01-26T12:51:37.887Z,28.8
2023-01-26T12:52:25.264Z,28.8
2023-01-26T12:53:12.599Z,28.8
2023-01-26T12:53:59.943Z,28.8
2023-01-26T12:54:47.365Z,28.8
2023-01-26T12:55:34.716Z,28.8
2023-01-26T12:56:22.082Z,28.8
2023-01-26T12:57:09.429Z,28.8
2023-01-26T12:57:56.766Z,28.8
2023-01-26T12:58:44.106Z,28.8
2023-01-26T12:59:47.087Z,28.8
2023-01-26T13:00:29.443Z,28.8
2023-01-26T13:01:16.882Z,28.8
2023-01-26T13:02:04.292Z,28.8
2023-01-26T13:02:51.760Z,28.8
2023-01-26T13:03:39.138Z,28.8
2023-01-26T13:04:26.509Z,28.8
2023-01-26T13:05:13.904Z,28.8
2023-01-26T13:06:01.305Z,28.8
2023-01-26T13:06:48.646Z,28.8
2023-01-26T13:07:36.009Z,28.8
2023-01-26T13:08:23.445Z,28.8
2023-01-26T13:09:10.745Z,28.8
2023-01-26T13:09:58.117Z,28.8
2023-01-26T13:10:45.507Z,28.8
2023-01-26T13:11:32.849Z,28.8
2023-01-26T13:12:20.200Z,28.8
2023-01-26T13:13:07.628Z,28.8
2023-01-26T13:13:54.999Z,28.8
2023-01-26T13:14:42.391Z,28.8
2023-01-26T13:15:29.893Z,28.8
2023-01-26T13:16:17.379Z,28.8
2023-01-26T13:17:04.778Z,28.8
2023-01-26T13:17:52.203Z,28.8
2023-01-26T13:18:39.583Z,28.8
2023-01-26T13:19:26.929Z,28.8
2023-01-26T13:20:14.518Z,28.8
2023-01-26T13:21:02.090Z,28.8
2023-01-26T13:21:49.436Z,28.8
2023-01-26T13:22:36.773Z,28.8
2023-01-26T13:23:24.100Z,28.8
2023-01-26T13:24:11.540Z,28.8
2023-01-26T13:24:58.946Z,28.8
2023-01-26T13:25:46.454Z,28.8
2023-01-26T13:26:33.870Z,28.8
2023-01-26T13:27:21.583Z,28.8
2023-01-26T13:28:12.005Z,28.8
2023-01-26T13:29:01.196Z,28.8
2023-01-26T13:29:50.337Z,28.8
2023-01-26T13:30:38.057Z,28.8
2023-01-26T13:31:25.902Z,28.8
2023-01-26T13:32:13.340Z,28.8
2023-01-26T13:33:00.682Z,28.8
2023-01-26T13:33:48.042Z,28.8
2023-01-26T13:34:35.414Z,28.8
2023-01-26T13:35:22.796Z,28.8
2023-01-26T13:36:10.146Z,28.8
2023-01-26T13:36:57.481Z,28.8
2023-01-26T13:37:44.853Z,28.8
2023-01-26T13:38:32.265Z,28.8
2023-01-26T13:39:19.635Z,28.8
2023-01-26T13:40:06.987Z,28.8
2023-01-26T13:40:54.349Z,28.8
2023-01-26T13:41:41.678Z,28.8
2023-01-26T13:42:29.012Z,28.8
2023-01-26T13:43:26.131Z,82.0
2023-01-26T13:44:13.673Z,82.0
2023-01-26T13:45:01.110Z,82.0
2023-01-26T13:45:48.437Z,82.0
2023-01-26T13:46:35.804Z,82.0
2023-01-26T13:47:23.346Z,82.0
2023-01-26T13:48:10.752Z,82.0
2023-01-26T13:48:58.092Z,82.0
2023-01-26T13:49:45.549Z,82.0
2023-01-26T13:50:32.892Z,82.0
2023-01-26T13:51:20.222Z,82.0
2023-01-26T13:52:07.658Z,82.0
2023-01-26T13:52:54.988Z,82.0
2023-01-26T13:53:42.521Z,82.0
2023-01-26T13:54:29.849Z,82.0
2023-01-26T13:55:17.214Z,82.0
2023-01-26T13:56:04.558Z,82.0
2023-01-26T13:56:51.951Z,82.0
2023-01-26T13:57:39.307Z,82.0
2023-01-26T13:58:26.655Z,82.0
2023-01-26T13:59:14.032Z,82.0
2023-01-26T14:00:01.405Z,82.0
2023-01-26T14:00:48.819Z,82.0
2023-01-26T14:01:36.260Z,82.0
2023-01-26T14:02:23.745Z,82.0
2023-01-26T14:03:11.141Z,82.0
2023-01-26T14:03:58.550Z,82.0
2023-01-26T14:04:45.881Z,82.0
2023-01-26T14:05:33.224Z,82.0
2023-01-26T14:06:20.636Z,82.0
2023-01-26T14:07:07.985Z,82.0
2023-01-26T14:07:55.349Z,82.0
2023-01-26T14:08:42.956Z,82.0
2023-01-26T14:09:30.267Z,82.0
2023-01-26T14:10:17.871Z,82.0
2023-01-26T14:11:05.239Z,82.0
2023-01-26T14:11:52.574Z,82.0
2023-01-26T14:12:39.934Z,82.0
2023-01-26T14:13:27.338Z,82.0
2023-01-26T14:14:14.693Z,82.0
2023-01-26T14:15:02.029Z,82.0
2023-01-26T14:15:49.446Z,82.0
2023-01-26T14:16:37.044Z,82.0
2023-01-26T14:17:24.416Z,82.0
2023-01-26T14:18:11.828Z,82.0
2023-01-26T14:18:59.140Z,82.0
2023-01-26T14:19:46.470Z,82.0
2023-01-26T14:20:33.943Z,82.0
2023-01-26T14:21:21.351Z,82.0
2023-01-26T14:22:08.679Z,82.0
2023-01-26T14:22:56.114Z,82.0
2023-01-26T14:23:43.467Z,82.0
2023-01-26T14:24:30.911Z,82.0
2023-01-26T14:25:18.305Z,82.0
2023-01-26T14:26:05.633Z,82.0
2023-01-26T14:26:52.979Z,82.0
2023-01-26T14:27:40.439Z,82.0
2023-01-26T14:28:27.799Z,82.0
2023-01-26T14:29:15.139Z,82.0
2023-01-26T14:30:02.537Z,82.0
2023-01-26T14:30:49.959Z,82.0
2023-01-26T14:31:37.398Z,82.0
2023-01-26T14:32:24.794Z,82.0
2023-01-26T14:33:12.177Z,82.0
2023-01-26T14:33:59.525Z,82.0
2023-01-26T14:34:46.953Z,82.0
2023-01-26T14:35:34.280Z,82.0
2023-01-26T14:36:21.602Z,82.0
2023-01-26T14:37:09.029Z,82.0
2023-01-26T14:37:56.411Z,82.0
2023-01-26T14:38:44.231Z,82.0
2023-01-26T14:39:31.777Z,82.0
2023-01-26T14:40:19.164Z,82.0
2023-01-26T14:41:06.499Z,82.0
2023-01-26T14:41:53.832Z,82.0
2023-01-26T14:42:41.263Z,57.4
2023-01-26T14:43:28.598Z,57.4
2023-01-26T14:44:15.923Z,57.4
2023-01-26T14:45:03.330Z,57.4
2023-01-26T14:45:50.661Z,57.4
2023-01-26T14:46:38.009Z,57.4
2023-01-26T14:47:25.360Z,57.4
2023-01-26T14:48:12.712Z,57.4
2023-01-26T14:49:00.036Z,57.4
2023-01-26T14:49:47.465Z,57.4
2023-01-26T14:50:34.802Z,57.4
2023-01-26T14:51:22.163Z,57.4
2023-01-26T14:52:09.565Z,57.4
2023-01-26T14:52:56.902Z,57.4
2023-01-26T14:53:44.252Z,57.4
2023-01-26T14:54:31.665Z,57.4
2023-01-26T14:55:19.006Z,57.4
2023-01-26T14:56:06.312Z,57.4
2023-01-26T14:56:53.753Z,57.4
2023-01-26T14:57:41.086Z,57.4
2023-01-26T14:58:28.412Z,57.4
2023-01-26T14:59:15.925Z,57.4
2023-01-26T15:00:03.324Z,57.4
2023-01-26T15:00:50.773Z,57.4
2023-01-26T15:01:38.215Z,57.4
2023-01-26T15:02:25.600Z,57.4
2023-01-26T15:03:13.060Z,57.4
2023-01-26T15:04:00.542Z,57.4
2023-01-26T15:04:47.889Z,57.4
2023-01-26T15:05:35.205Z,57.4
2023-01-26T15:06:22.615Z,57.4
2023-01-26T15:07:09.935Z,57.4
2023-01-26T15:07:57.238Z,57.4
2023-01-26T15:08:44.700Z,57.4
2023-01-26T15:09:32.074Z,57.4
2023-01-26T15:10:19.622Z,57.4
2023-01-26T15:11:06.971Z,57.4
2023-01-26T15:11:54.286Z,57.4
2023-01-26T15:12:41.615Z,57.4
2023-01-26T15:13:29.049Z,57.4
2023-01-26T15:14:16.470Z,57.4
2023-01-26T15:15:03.779Z,57.4
2023-01-26T15:15:51.227Z,57.4
2023-01-26T15:16:38.551Z,57.4
2023-01-26T15:17:25.873Z,57.4
2023-01-26T15:18:13.317Z,57.4
2023-01-26T15:19:00.706Z,57.4
2023-01-26T15:19:48.089Z,57.4
2023-01-26T15:20:35.454Z,57.4
2023-01-26T15:21:24.082Z,57.4
2023-01-26T15:22:13.209Z,57.4
2023-01-26T15:23:00.652Z,57.4
2023-01-26T15:23:48.020Z,57.4
2023-01-26T15:24:35.367Z,57.4
2023-01-26T15:25:22.741Z,57.4
2023-01-26T15:26:10.490Z,57.4
2023-01-26T15:26:58.267Z,57.4
2023-01-26T15:27:46.163Z,57.4
2023-01-26T15:28:33.942Z,57.4
2023-01-26T15:29:21.830Z,57.4
2023-01-26T15:30:09.600Z,57.4
2023-01-26T15:30:57.789Z,57.4
2023-01-26T15:31:45.914Z,57.4
2023-01-26T15:32:33.741Z,57.4
2023-01-26T15:33:21.907Z,57.4
2023-01-26T15:34:09.463Z,57.4
2023-01-26T15:34:57.484Z,57.4
2023-01-26T15:35:45.211Z,57.4
2023-01-26T15:36:33.103Z,57.4
2023-01-26T15:37:20.862Z,57.4
2023-01-26T15:38:08.597Z,57.4
2023-01-26T15:38:56.619Z,57.4
2023-01-26T15:39:45.126Z,57.4
2023-01-26T15:40:33.257Z,57.4
2023-01-26T15:41:20.604Z,57.4
2023-01-26T15:42:07.927Z,57.4
2023-01-26T15:42:55.247Z,38.7
2023-01-26T15:43:42.663Z,38.7
2023-01-26T15:44:29.988Z,38.7
2023-01-26T15:45:17.387Z,38.7
2023-01-26T15:46:04.721Z,38.7
2023-01-26T15:46:52.098Z,38.7
2023-01-26T15:47:39.431Z,38.7
2023-01-26T15:48:27.028Z,38.7
2023-01-26T15:49:14.381Z,38.7
2023-01-26T15:50:01.717Z,38.7
2023-01-26T15:50:49.139Z,38.7
2023-01-26T15:51:36.448Z,38.7
2023-01-26T15:52:23.784Z,38.7
2023-01-26T15:53:11.189Z,38.7
2023-01-26T15:53:58.514Z,38.7
2023-01-26T15:54:45.832Z,38.7
2023-01-26T15:55:33.535Z,38.7
2023-01-26T15:56:21.419Z,38.7
2023-01-26T15:57:08.736Z,38.7
2023-01-26T15:57:56.033Z,38.7
2023-01-26T15:58:43.352Z,38.7
2023-01-26T15:59:30.705Z,38.7
2023-01-26T16:00:18.052Z,38.7
2023-01-26T16:01:05.463Z,38.7
2023-01-26T16:01:52.826Z,38.7
2023-01-26T16:02:40.217Z,38.7
2023-01-26T16:03:27.949Z,38.7
2023-01-26T16:04:15.364Z,38.7
2023-01-26T16:05:02.686Z,38.7
2023-01-26T16:05:50.143Z,38.7
2023-01-26T16:06:37.499Z,38.7
2023-01-26T16:07:24.838Z,38.7
2023-01-26T16:08:12.181Z,38.7
2023-01-26T16:08:59.504Z,38.7
2023-01-26T16:09:47.543Z,38.7
2023-01-26T16:10:38.234Z,38.7
2023-01-26T16:11:26.107Z,38.7
2023-01-26T16:12:25.911Z,38.7
2023-01-26T16:13:10.838Z,38.7
2023-01-26T16:14:03.609Z,38.7
2023-01-26T16:14:51.400Z,38.7
2023-01-26T16:15:38.797Z,38.7
2023-01-26T16:16:26.171Z,38.7
2023-01-26T16:17:13.502Z,38.7
2023-01-26T16:18:00.952Z,38.7
2023-01-26T16:18:48.290Z,38.7
2023-01-26T16:19:35.940Z,38.7
2023-01-26T16:20:23.289Z,38.7
2023-01-26T16:21:10.627Z,38.7
2023-01-26T16:21:57.932Z,38.7
2023-01-26T16:22:45.357Z,38.7
2023-01-26T16:23:32.666Z,38.7
2023-01-26T16:24:20.026Z,38.7
2023-01-26T16:25:07.410Z,38.7
2023-01-26T16:25:54.709Z,38.7
2023-01-26T16:26:42.033Z,38.7